sensor_id;sensor_type;location;lat;lon;timestamp;P1;durP1;ratioP1;P2;durP2;ratioP2
3417;SDS011;1722;51.316;12.370;2023-01-19T00:00:39;23.75;;;7.40;;
3417;SDS011;1722;51.316;12.370;2023-01-19T00:03:07;12.13;;;6.63;;
3417;SDS011;1722;51.316;12.370;2023-01-19T00:05:40;16.35;;;7.55;;
3417;SDS011;1722;51.316;12.370;2023-01-19T00:08:08;17.67;;;7.20;;
3417;SDS011;1722;51.316;12.370;2023-01-19T00:10:40;17.42;;;7.10;;
3417;SDS011;1722;51.316;12.370;2023-01-19T00:13:10;17.08;;;7.07;;
3417;SDS011;1722;51.316;12.370;2023-01-19T00:15:37;14.90;;;6.93;;
3417;SDS011;1722;51.316;12.370;2023-01-19T00:18:05;11.75;;;7.45;;
3417;SDS011;1722;51.316;12.370;2023-01-19T00:20:32;12.00;;;7.23;;
3417;SDS011;1722;51.316;12.370;2023-01-19T00:23:01;10.73;;;6.47;;
3417;SDS011;1722;51.316;12.370;2023-01-19T00:25:29;11.82;;;6.75;;
3417;SDS011;1722;51.316;12.370;2023-01-19T00:27:57;14.95;;;6.90;;
3417;SDS011;1722;51.316;12.370;2023-01-19T00:30:25;17.05;;;7.40;;
3417;SDS011;1722;51.316;12.370;2023-01-19T00:32:56;19.33;;;7.15;;
3417;SDS011;1722;51.316;12.370;2023-01-19T00:35:23;12.65;;;6.75;;
3417;SDS011;1722;51.316;12.370;2023-01-19T00:37:50;16.67;;;6.70;;
3417;SDS011;1722;51.316;12.370;2023-01-19T00:40:18;13.88;;;7.55;;
3417;SDS011;1722;51.316;12.370;2023-01-19T00:42:46;13.90;;;7.15;;
3417;SDS011;1722;51.316;12.370;2023-01-19T00:45:14;15.18;;;7.60;;
3417;SDS011;1722;51.316;12.370;2023-01-19T00:47:44;12.48;;;6.25;;
3417;SDS011;1722;51.316;12.370;2023-01-19T00:50:13;10.90;;;5.57;;
3417;SDS011;1722;51.316;12.370;2023-01-19T00:52:42;11.18;;;6.47;;
3417;SDS011;1722;51.316;12.370;2023-01-19T00:55:11;13.13;;;7.15;;
3417;SDS011;1722;51.316;12.370;2023-01-19T00:57:40;15.38;;;6.22;;
3417;SDS011;1722;51.316;12.370;2023-01-19T01:00:09;13.40;;;6.18;;
3417;SDS011;1722;51.316;12.370;2023-01-19T01:02:38;12.82;;;6.47;;
3417;SDS011;1722;51.316;12.370;2023-01-19T01:05:09;11.77;;;6.30;;
3417;SDS011;1722;51.316;12.370;2023-01-19T01:07:37;10.93;;;6.00;;
3417;SDS011;1722;51.316;12.370;2023-01-19T01:10:06;11.23;;;6.28;;
3417;SDS011;1722;51.316;12.370;2023-01-19T01:12:35;11.40;;;6.13;;
3417;SDS011;1722;51.316;12.370;2023-01-19T01:15:03;12.02;;;6.63;;
3417;SDS011;1722;51.316;12.370;2023-01-19T01:17:31;15.88;;;6.90;;
3417;SDS011;1722;51.316;12.370;2023-01-19T01:19:59;12.55;;;6.65;;
3417;SDS011;1722;51.316;12.370;2023-01-19T01:22:27;16.77;;;6.13;;
3417;SDS011;1722;51.316;12.370;2023-01-19T01:24:55;10.73;;;5.90;;
3417;SDS011;1722;51.316;12.370;2023-01-19T01:27:22;10.73;;;6.30;;
3417;SDS011;1722;51.316;12.370;2023-01-19T01:29:50;7.22;;;5.10;;
3417;SDS011;1722;51.316;12.370;2023-01-19T01:32:17;8.45;;;4.95;;
3417;SDS011;1722;51.316;12.370;2023-01-19T01:34:45;10.73;;;5.32;;
3417;SDS011;1722;51.316;12.370;2023-01-19T01:37:12;14.25;;;6.63;;
3417;SDS011;1722;51.316;12.370;2023-01-19T01:39:41;11.90;;;5.78;;
3417;SDS011;1722;51.316;12.370;2023-01-19T01:42:13;14.25;;;5.80;;
3417;SDS011;1722;51.316;12.370;2023-01-19T01:44:44;14.18;;;5.75;;
3417;SDS011;1722;51.316;12.370;2023-01-19T01:47:19;10.50;;;5.72;;
3417;SDS011;1722;51.316;12.370;2023-01-19T01:49:52;15.60;;;6.03;;
3417;SDS011;1722;51.316;12.370;2023-01-19T01:52:26;12.45;;;5.85;;
3417;SDS011;1722;51.316;12.370;2023-01-19T01:54:59;6.50;;;4.88;;
3417;SDS011;1722;51.316;12.370;2023-01-19T01:57:31;11.73;;;5.80;;
3417;SDS011;1722;51.316;12.370;2023-01-19T02:00:01;12.77;;;6.03;;
3417;SDS011;1722;51.316;12.370;2023-01-19T02:02:30;13.60;;;6.30;;
3417;SDS011;1722;51.316;12.370;2023-01-19T02:05:20;15.55;;;6.00;;
3417;SDS011;1722;51.316;12.370;2023-01-19T02:07:54;10.40;;;5.30;;
3417;SDS011;1722;51.316;12.370;2023-01-19T02:10:44;12.30;;;5.47;;
3417;SDS011;1722;51.316;12.370;2023-01-19T02:13:32;8.65;;;5.05;;
3417;SDS011;1722;51.316;12.370;2023-01-19T02:16:01;10.63;;;5.68;;
3417;SDS011;1722;51.316;12.370;2023-01-19T02:18:32;7.63;;;5.10;;
3417;SDS011;1722;51.316;12.370;2023-01-19T02:21:03;8.40;;;4.90;;
3417;SDS011;1722;51.316;12.370;2023-01-19T02:23:38;8.32;;;4.93;;
3417;SDS011;1722;51.316;12.370;2023-01-19T02:26:09;11.50;;;5.40;;
3417;SDS011;1722;51.316;12.370;2023-01-19T02:28:40;11.93;;;4.78;;
3417;SDS011;1722;51.316;12.370;2023-01-19T02:31:10;7.82;;;4.70;;
3417;SDS011;1722;51.316;12.370;2023-01-19T02:33:39;10.63;;;5.30;;
3417;SDS011;1722;51.316;12.370;2023-01-19T02:36:08;7.55;;;4.63;;
3417;SDS011;1722;51.316;12.370;2023-01-19T02:38:39;7.18;;;4.30;;
3417;SDS011;1722;51.316;12.370;2023-01-19T02:41:08;8.52;;;4.75;;
3417;SDS011;1722;51.316;12.370;2023-01-19T02:43:38;8.60;;;4.38;;
3417;SDS011;1722;51.316;12.370;2023-01-19T02:46:07;8.85;;;4.60;;
3417;SDS011;1722;51.316;12.370;2023-01-19T02:48:35;8.88;;;4.60;;
3417;SDS011;1722;51.316;12.370;2023-01-19T02:51:03;8.57;;;4.95;;
3417;SDS011;1722;51.316;12.370;2023-01-19T02:57:00;6.97;;;4.20;;
3417;SDS011;1722;51.316;12.370;2023-01-19T02:59:50;6.40;;;4.75;;
3417;SDS011;1722;51.316;12.370;2023-01-19T03:02:28;6.75;;;4.80;;
3417;SDS011;1722;51.316;12.370;2023-01-19T03:05:07;7.47;;;4.50;;
3417;SDS011;1722;51.316;12.370;2023-01-19T03:07:46;8.18;;;4.32;;
3417;SDS011;1722;51.316;12.370;2023-01-19T03:10:21;7.53;;;3.92;;
3417;SDS011;1722;51.316;12.370;2023-01-19T03:12:58;9.30;;;4.15;;
3417;SDS011;1722;51.316;12.370;2023-01-19T03:15:30;10.32;;;5.20;;
3417;SDS011;1722;51.316;12.370;2023-01-19T03:18:00;10.20;;;4.80;;
3417;SDS011;1722;51.316;12.370;2023-01-19T03:20:31;8.23;;;4.55;;
3417;SDS011;1722;51.316;12.370;2023-01-19T03:23:00;10.18;;;4.78;;
3417;SDS011;1722;51.316;12.370;2023-01-19T03:25:31;12.55;;;3.92;;
3417;SDS011;1722;51.316;12.370;2023-01-19T03:28:04;9.15;;;3.72;;
3417;SDS011;1722;51.316;12.370;2023-01-19T03:30:32;10.85;;;4.22;;
3417;SDS011;1722;51.316;12.370;2023-01-19T03:33:03;8.88;;;3.97;;
3417;SDS011;1722;51.316;12.370;2023-01-19T03:35:34;5.57;;;3.40;;
3417;SDS011;1722;51.316;12.370;2023-01-19T03:38:08;6.78;;;3.40;;
3417;SDS011;1722;51.316;12.370;2023-01-19T03:40:39;5.63;;;3.97;;
3417;SDS011;1722;51.316;12.370;2023-01-19T03:43:09;5.07;;;3.47;;
3417;SDS011;1722;51.316;12.370;2023-01-19T03:45:38;6.15;;;3.40;;
3417;SDS011;1722;51.316;12.370;2023-01-19T03:48:07;5.32;;;3.90;;
3417;SDS011;1722;51.316;12.370;2023-01-19T03:50:35;6.20;;;3.35;;
3417;SDS011;1722;51.316;12.370;2023-01-19T03:53:09;7.25;;;3.80;;
3417;SDS011;1722;51.316;12.370;2023-01-19T03:55:38;9.32;;;4.30;;
3417;SDS011;1722;51.316;12.370;2023-01-19T03:58:08;6.00;;;3.50;;
3417;SDS011;1722;51.316;12.370;2023-01-19T04:00:36;6.30;;;3.30;;
3417;SDS011;1722;51.316;12.370;2023-01-19T04:03:04;8.73;;;4.30;;
3417;SDS011;1722;51.316;12.370;2023-01-19T04:05:37;7.22;;;3.63;;
3417;SDS011;1722;51.316;12.370;2023-01-19T04:08:05;11.32;;;3.65;;
3417;SDS011;1722;51.316;12.370;2023-01-19T04:10:33;5.93;;;3.50;;
3417;SDS011;1722;51.316;12.370;2023-01-19T04:13:00;5.60;;;3.55;;
3417;SDS011;1722;51.316;12.370;2023-01-19T04:15:30;10.00;;;4.03;;
3417;SDS011;1722;51.316;12.370;2023-01-19T04:17:58;4.47;;;3.20;;
3417;SDS011;1722;51.316;12.370;2023-01-19T04:20:26;6.75;;;3.85;;
3417;SDS011;1722;51.316;12.370;2023-01-19T04:22:54;5.30;;;3.78;;
3417;SDS011;1722;51.316;12.370;2023-01-19T04:25:25;8.02;;;3.40;;
3417;SDS011;1722;51.316;12.370;2023-01-19T04:27:53;8.75;;;4.15;;
3417;SDS011;1722;51.316;12.370;2023-01-19T04:30:22;8.07;;;3.53;;
3417;SDS011;1722;51.316;12.370;2023-01-19T04:32:51;7.28;;;3.90;;
3417;SDS011;1722;51.316;12.370;2023-01-19T04:35:20;10.50;;;4.53;;
3417;SDS011;1722;51.316;12.370;2023-01-19T04:37:48;8.18;;;3.90;;
3417;SDS011;1722;51.316;12.370;2023-01-19T04:40:16;6.93;;;4.20;;
3417;SDS011;1722;51.316;12.370;2023-01-19T04:42:43;13.60;;;4.30;;
3417;SDS011;1722;51.316;12.370;2023-01-19T04:45:12;7.97;;;4.28;;
3417;SDS011;1722;51.316;12.370;2023-01-19T04:47:40;7.93;;;4.25;;
3417;SDS011;1722;51.316;12.370;2023-01-19T04:50:09;8.82;;;4.35;;
3417;SDS011;1722;51.316;12.370;2023-01-19T04:52:37;7.80;;;4.45;;
3417;SDS011;1722;51.316;12.370;2023-01-19T04:55:05;6.68;;;4.70;;
3417;SDS011;1722;51.316;12.370;2023-01-19T04:57:33;8.80;;;4.55;;
3417;SDS011;1722;51.316;12.370;2023-01-19T05:00:01;8.13;;;4.85;;
3417;SDS011;1722;51.316;12.370;2023-01-19T05:02:31;6.32;;;3.92;;
3417;SDS011;1722;51.316;12.370;2023-01-19T05:04:59;9.93;;;5.72;;
3417;SDS011;1722;51.316;12.370;2023-01-19T05:07:28;8.57;;;4.80;;
3417;SDS011;1722;51.316;12.370;2023-01-19T05:09:56;6.60;;;4.40;;
3417;SDS011;1722;51.316;12.370;2023-01-19T05:12:23;7.35;;;4.20;;
3417;SDS011;1722;51.316;12.370;2023-01-19T05:14:51;8.07;;;4.72;;
3417;SDS011;1722;51.316;12.370;2023-01-19T05:17:18;5.00;;;3.78;;
3417;SDS011;1722;51.316;12.370;2023-01-19T05:19:46;9.93;;;5.18;;
3417;SDS011;1722;51.316;12.370;2023-01-19T05:22:13;9.63;;;5.20;;
3417;SDS011;1722;51.316;12.370;2023-01-19T05:24:42;8.45;;;4.90;;
3417;SDS011;1722;51.316;12.370;2023-01-19T05:27:10;6.80;;;4.68;;
3417;SDS011;1722;51.316;12.370;2023-01-19T05:29:38;8.30;;;5.60;;
3417;SDS011;1722;51.316;12.370;2023-01-19T05:32:05;6.63;;;4.45;;
3417;SDS011;1722;51.316;12.370;2023-01-19T05:34:33;13.93;;;5.97;;
3417;SDS011;1722;51.316;12.370;2023-01-19T05:37:00;13.98;;;5.55;;
3417;SDS011;1722;51.316;12.370;2023-01-19T05:39:28;8.13;;;5.20;;
3417;SDS011;1722;51.316;12.370;2023-01-19T05:41:56;11.00;;;6.15;;
3417;SDS011;1722;51.316;12.370;2023-01-19T05:44:24;11.07;;;6.50;;
3417;SDS011;1722;51.316;12.370;2023-01-19T05:46:52;12.95;;;7.20;;
3417;SDS011;1722;51.316;12.370;2023-01-19T05:49:19;9.85;;;6.20;;
3417;SDS011;1722;51.316;12.370;2023-01-19T05:51:46;10.90;;;5.80;;
3417;SDS011;1722;51.316;12.370;2023-01-19T05:54:14;11.18;;;6.60;;
3417;SDS011;1722;51.316;12.370;2023-01-19T05:56:42;14.93;;;7.65;;
3417;SDS011;1722;51.316;12.370;2023-01-19T05:59:10;16.13;;;7.45;;
3417;SDS011;1722;51.316;12.370;2023-01-19T06:01:38;18.20;;;8.40;;
3417;SDS011;1722;51.316;12.370;2023-01-19T06:04:06;16.25;;;7.63;;
3417;SDS011;1722;51.316;12.370;2023-01-19T06:06:34;12.00;;;7.32;;
3417;SDS011;1722;51.316;12.370;2023-01-19T06:09:01;16.40;;;7.13;;
3417;SDS011;1722;51.316;12.370;2023-01-19T06:11:29;15.63;;;7.03;;
3417;SDS011;1722;51.316;12.370;2023-01-19T06:13:56;12.60;;;7.22;;
3417;SDS011;1722;51.316;12.370;2023-01-19T06:16:25;14.15;;;7.03;;
3417;SDS011;1722;51.316;12.370;2023-01-19T06:18:53;12.27;;;7.50;;
3417;SDS011;1722;51.316;12.370;2023-01-19T06:21:20;12.15;;;7.05;;
3417;SDS011;1722;51.316;12.370;2023-01-19T06:23:48;12.48;;;7.30;;
3417;SDS011;1722;51.316;12.370;2023-01-19T06:26:16;11.10;;;7.07;;
3417;SDS011;1722;51.316;12.370;2023-01-19T06:28:43;20.25;;;7.30;;
3417;SDS011;1722;51.316;12.370;2023-01-19T06:31:11;12.63;;;7.97;;
3417;SDS011;1722;51.316;12.370;2023-01-19T06:33:40;12.63;;;7.00;;
3417;SDS011;1722;51.316;12.370;2023-01-19T06:36:07;12.57;;;6.68;;
3417;SDS011;1722;51.316;12.370;2023-01-19T06:38:35;12.25;;;7.53;;
3417;SDS011;1722;51.316;12.370;2023-01-19T06:41:03;13.38;;;7.95;;
3417;SDS011;1722;51.316;12.370;2023-01-19T06:43:30;13.65;;;8.05;;
3417;SDS011;1722;51.316;12.370;2023-01-19T06:45:58;16.70;;;9.05;;
3417;SDS011;1722;51.316;12.370;2023-01-19T06:48:26;14.27;;;8.23;;
3417;SDS011;1722;51.316;12.370;2023-01-19T06:50:55;13.70;;;7.70;;
3417;SDS011;1722;51.316;12.370;2023-01-19T06:53:25;17.60;;;10.25;;
3417;SDS011;1722;51.316;12.370;2023-01-19T06:55:57;13.95;;;8.55;;
3417;SDS011;1722;51.316;12.370;2023-01-19T06:58:25;12.60;;;7.82;;
3417;SDS011;1722;51.316;12.370;2023-01-19T07:00:53;15.63;;;8.50;;
3417;SDS011;1722;51.316;12.370;2023-01-19T07:03:21;17.63;;;8.90;;
3417;SDS011;1722;51.316;12.370;2023-01-19T07:05:50;15.38;;;9.35;;
3417;SDS011;1722;51.316;12.370;2023-01-19T07:08:19;16.05;;;9.05;;
3417;SDS011;1722;51.316;12.370;2023-01-19T07:10:47;20.33;;;8.55;;
3417;SDS011;1722;51.316;12.370;2023-01-19T07:13:14;17.95;;;8.85;;
3417;SDS011;1722;51.316;12.370;2023-01-19T07:15:42;17.08;;;9.88;;
3417;SDS011;1722;51.316;12.370;2023-01-19T07:18:09;17.83;;;9.38;;
3417;SDS011;1722;51.316;12.370;2023-01-19T07:20:37;17.23;;;9.07;;
3417;SDS011;1722;51.316;12.370;2023-01-19T07:23:04;14.05;;;8.63;;
3417;SDS011;1722;51.316;12.370;2023-01-19T07:25:33;16.25;;;9.77;;
3417;SDS011;1722;51.316;12.370;2023-01-19T07:28:01;16.00;;;9.80;;
3417;SDS011;1722;51.316;12.370;2023-01-19T07:30:29;17.23;;;9.50;;
3417;SDS011;1722;51.316;12.370;2023-01-19T07:32:57;14.20;;;8.00;;
3417;SDS011;1722;51.316;12.370;2023-01-19T07:35:24;13.85;;;8.45;;
3417;SDS011;1722;51.316;12.370;2023-01-19T07:37:54;14.65;;;8.30;;
3417;SDS011;1722;51.316;12.370;2023-01-19T07:40:21;14.25;;;8.35;;
3417;SDS011;1722;51.316;12.370;2023-01-19T07:42:50;11.93;;;7.88;;
3417;SDS011;1722;51.316;12.370;2023-01-19T07:45:18;13.98;;;8.48;;
3417;SDS011;1722;51.316;12.370;2023-01-19T07:47:47;13.00;;;8.18;;
3417;SDS011;1722;51.316;12.370;2023-01-19T07:50:15;12.85;;;7.85;;
3417;SDS011;1722;51.316;12.370;2023-01-19T07:52:46;17.63;;;8.38;;
3417;SDS011;1722;51.316;12.370;2023-01-19T07:55:15;15.55;;;8.00;;
3417;SDS011;1722;51.316;12.370;2023-01-19T07:57:43;17.13;;;8.15;;
3417;SDS011;1722;51.316;12.370;2023-01-19T08:00:12;10.95;;;6.68;;
3417;SDS011;1722;51.316;12.370;2023-01-19T08:02:40;14.65;;;8.35;;
3417;SDS011;1722;51.316;12.370;2023-01-19T08:05:07;20.95;;;8.98;;
3417;SDS011;1722;51.316;12.370;2023-01-19T08:07:35;17.25;;;8.23;;
3417;SDS011;1722;51.316;12.370;2023-01-19T08:10:03;16.30;;;8.82;;
3417;SDS011;1722;51.316;12.370;2023-01-19T08:12:31;15.57;;;8.82;;
3417;SDS011;1722;51.316;12.370;2023-01-19T08:14:59;17.77;;;9.60;;
3417;SDS011;1722;51.316;12.370;2023-01-19T08:17:28;19.88;;;8.68;;
3417;SDS011;1722;51.316;12.370;2023-01-19T08:19:56;14.15;;;8.15;;
3417;SDS011;1722;51.316;12.370;2023-01-19T08:22:24;16.25;;;8.10;;
3417;SDS011;1722;51.316;12.370;2023-01-19T08:24:51;17.23;;;9.27;;
3417;SDS011;1722;51.316;12.370;2023-01-19T08:27:19;20.17;;;8.13;;
3417;SDS011;1722;51.316;12.370;2023-01-19T08:29:47;16.35;;;9.25;;
3417;SDS011;1722;51.316;12.370;2023-01-19T08:32:15;17.63;;;10.18;;
3417;SDS011;1722;51.316;12.370;2023-01-19T08:34:44;15.70;;;8.50;;
3417;SDS011;1722;51.316;12.370;2023-01-19T08:37:11;19.85;;;8.85;;
3417;SDS011;1722;51.316;12.370;2023-01-19T08:39:39;14.30;;;8.70;;
3417;SDS011;1722;51.316;12.370;2023-01-19T08:42:06;23.35;;;9.13;;
3417;SDS011;1722;51.316;12.370;2023-01-19T08:44:34;12.63;;;7.63;;
3417;SDS011;1722;51.316;12.370;2023-01-19T08:47:01;16.13;;;8.02;;
3417;SDS011;1722;51.316;12.370;2023-01-19T08:49:29;13.07;;;8.75;;
3417;SDS011;1722;51.316;12.370;2023-01-19T08:51:58;13.45;;;8.48;;
3417;SDS011;1722;51.316;12.370;2023-01-19T08:54:25;17.25;;;8.85;;
3417;SDS011;1722;51.316;12.370;2023-01-19T08:56:53;14.63;;;8.20;;
3417;SDS011;1722;51.316;12.370;2023-01-19T08:59:21;15.07;;;8.48;;
3417;SDS011;1722;51.316;12.370;2023-01-19T09:01:48;14.25;;;8.18;;
3417;SDS011;1722;51.316;12.370;2023-01-19T09:04:16;17.13;;;9.10;;
3417;SDS011;1722;51.316;12.370;2023-01-19T09:06:46;15.35;;;9.50;;
3417;SDS011;1722;51.316;12.370;2023-01-19T09:09:15;17.55;;;9.18;;
3417;SDS011;1722;51.316;12.370;2023-01-19T09:11:43;16.38;;;9.55;;
3417;SDS011;1722;51.316;12.370;2023-01-19T09:14:10;14.00;;;9.07;;
3417;SDS011;1722;51.316;12.370;2023-01-19T09:16:38;21.60;;;10.25;;
3417;SDS011;1722;51.316;12.370;2023-01-19T09:19:05;14.00;;;9.38;;
3417;SDS011;1722;51.316;12.370;2023-01-19T09:21:33;15.20;;;9.30;;
3417;SDS011;1722;51.316;12.370;2023-01-19T09:24:01;15.93;;;9.48;;
3417;SDS011;1722;51.316;12.370;2023-01-19T09:26:30;17.55;;;9.40;;
3417;SDS011;1722;51.316;12.370;2023-01-19T09:28:57;16.77;;;8.75;;
3417;SDS011;1722;51.316;12.370;2023-01-19T09:31:25;15.75;;;9.63;;
3417;SDS011;1722;51.316;12.370;2023-01-19T09:33:52;12.75;;;8.50;;
3417;SDS011;1722;51.316;12.370;2023-01-19T09:36:20;16.05;;;9.15;;
3417;SDS011;1722;51.316;12.370;2023-01-19T09:38:47;21.98;;;10.18;;
3417;SDS011;1722;51.316;12.370;2023-01-19T09:41:17;21.17;;;10.20;;
3417;SDS011;1722;51.316;12.370;2023-01-19T09:43:49;16.75;;;9.80;;
3417;SDS011;1722;51.316;12.370;2023-01-19T09:46:21;16.42;;;10.38;;
3417;SDS011;1722;51.316;12.370;2023-01-19T09:48:53;16.73;;;9.65;;
3417;SDS011;1722;51.316;12.370;2023-01-19T09:51:23;18.13;;;9.20;;
3417;SDS011;1722;51.316;12.370;2023-01-19T09:53:54;18.58;;;9.15;;
3417;SDS011;1722;51.316;12.370;2023-01-19T09:56:26;15.02;;;9.15;;
3417;SDS011;1722;51.316;12.370;2023-01-19T09:58:56;14.15;;;8.50;;
3417;SDS011;1722;51.316;12.370;2023-01-19T10:01:28;17.17;;;8.40;;
3417;SDS011;1722;51.316;12.370;2023-01-19T10:04:08;16.63;;;9.65;;
3417;SDS011;1722;51.316;12.370;2023-01-19T10:06:47;13.65;;;9.00;;
3417;SDS011;1722;51.316;12.370;2023-01-19T10:09:17;19.80;;;8.48;;
3417;SDS011;1722;51.316;12.370;2023-01-19T10:11:51;17.42;;;9.10;;
3417;SDS011;1722;51.316;12.370;2023-01-19T10:14:27;14.82;;;8.52;;
3417;SDS011;1722;51.316;12.370;2023-01-19T10:17:05;17.23;;;9.95;;
3417;SDS011;1722;51.316;12.370;2023-01-19T10:19:42;14.68;;;9.52;;
3417;SDS011;1722;51.316;12.370;2023-01-19T10:22:16;17.52;;;9.40;;
3417;SDS011;1722;51.316;12.370;2023-01-19T10:24:47;16.13;;;9.48;;
3417;SDS011;1722;51.316;12.370;2023-01-19T10:27:19;15.50;;;9.25;;
3417;SDS011;1722;51.316;12.370;2023-01-19T10:29:51;16.55;;;8.52;;
3417;SDS011;1722;51.316;12.370;2023-01-19T10:32:20;16.50;;;8.93;;
3417;SDS011;1722;51.316;12.370;2023-01-19T10:34:51;16.80;;;9.52;;
3417;SDS011;1722;51.316;12.370;2023-01-19T10:37:24;14.68;;;9.45;;
3417;SDS011;1722;51.316;12.370;2023-01-19T10:39:56;18.23;;;10.43;;
3417;SDS011;1722;51.316;12.370;2023-01-19T10:42:27;23.15;;;10.98;;
3417;SDS011;1722;51.316;12.370;2023-01-19T10:44:57;13.55;;;8.73;;
3417;SDS011;1722;51.316;12.370;2023-01-19T10:47:30;16.52;;;10.20;;
3417;SDS011;1722;51.316;12.370;2023-01-19T10:50:03;18.52;;;9.52;;
3417;SDS011;1722;51.316;12.370;2023-01-19T10:52:49;17.77;;;8.73;;
3417;SDS011;1722;51.316;12.370;2023-01-19T10:55:22;14.75;;;9.50;;
3417;SDS011;1722;51.316;12.370;2023-01-19T10:57:52;17.73;;;9.02;;
3417;SDS011;1722;51.316;12.370;2023-01-19T11:00:32;16.52;;;9.75;;
3417;SDS011;1722;51.316;12.370;2023-01-19T11:03:02;14.75;;;9.35;;
3417;SDS011;1722;51.316;12.370;2023-01-19T11:05:31;17.35;;;9.38;;
3417;SDS011;1722;51.316;12.370;2023-01-19T11:07:59;13.73;;;8.70;;
3417;SDS011;1722;51.316;12.370;2023-01-19T11:10:27;20.08;;;9.23;;
3417;SDS011;1722;51.316;12.370;2023-01-19T11:12:57;17.92;;;9.82;;
3417;SDS011;1722;51.316;12.370;2023-01-19T11:15:28;16.55;;;9.18;;
3417;SDS011;1722;51.316;12.370;2023-01-19T11:18:00;14.77;;;9.27;;
3417;SDS011;1722;51.316;12.370;2023-01-19T11:20:29;14.88;;;9.35;;
3417;SDS011;1722;51.316;12.370;2023-01-19T11:23:16;16.27;;;9.13;;
3417;SDS011;1722;51.316;12.370;2023-01-19T11:25:50;15.55;;;8.65;;
3417;SDS011;1722;51.316;12.370;2023-01-19T11:28:19;16.58;;;10.63;;
3417;SDS011;1722;51.316;12.370;2023-01-19T11:30:54;16.10;;;9.57;;
3417;SDS011;1722;51.316;12.370;2023-01-19T11:33:24;17.67;;;8.93;;
3417;SDS011;1722;51.316;12.370;2023-01-19T11:36:02;14.63;;;9.20;;
3417;SDS011;1722;51.316;12.370;2023-01-19T11:38:31;13.73;;;8.53;;
3417;SDS011;1722;51.316;12.370;2023-01-19T11:41:11;15.50;;;9.10;;
3417;SDS011;1722;51.316;12.370;2023-01-19T11:43:44;16.37;;;8.67;;
3417;SDS011;1722;51.316;12.370;2023-01-19T11:46:14;14.43;;;8.70;;
3417;SDS011;1722;51.316;12.370;2023-01-19T11:48:45;13.60;;;8.53;;
3417;SDS011;1722;51.316;12.370;2023-01-19T11:51:15;15.07;;;9.37;;
3417;SDS011;1722;51.316;12.370;2023-01-19T11:53:50;13.87;;;8.17;;
3417;SDS011;1722;51.316;12.370;2023-01-19T11:56:19;13.73;;;8.53;;
3417;SDS011;1722;51.316;12.370;2023-01-19T11:58:49;13.30;;;8.60;;
3417;SDS011;1722;51.316;12.370;2023-01-19T12:01:19;13.27;;;8.17;;
3417;SDS011;1722;51.316;12.370;2023-01-19T12:03:50;16.87;;;9.20;;
3417;SDS011;1722;51.316;12.370;2023-01-19T12:06:24;13.73;;;7.70;;
3417;SDS011;1722;51.316;12.370;2023-01-19T12:08:55;11.17;;;7.40;;
3417;SDS011;1722;51.316;12.370;2023-01-19T12:11:28;12.93;;;8.20;;
3417;SDS011;1722;51.316;12.370;2023-01-19T12:13:59;12.80;;;7.40;;
3417;SDS011;1722;51.316;12.370;2023-01-19T12:16:28;14.60;;;8.00;;
3417;SDS011;1722;51.316;12.370;2023-01-19T12:18:58;11.47;;;7.40;;
3417;SDS011;1722;51.316;12.370;2023-01-19T12:21:28;10.20;;;7.37;;
3417;SDS011;1722;51.316;12.370;2023-01-19T12:24:02;13.10;;;7.83;;
3417;SDS011;1722;51.316;12.370;2023-01-19T12:26:35;14.70;;;7.10;;
3417;SDS011;1722;51.316;12.370;2023-01-19T12:29:10;9.83;;;6.50;;
3417;SDS011;1722;51.316;12.370;2023-01-19T12:31:40;11.30;;;6.60;;
3417;SDS011;1722;51.316;12.370;2023-01-19T12:34:27;8.43;;;5.50;;
3417;SDS011;1722;51.316;12.370;2023-01-19T12:37:05;12.03;;;7.53;;
3417;SDS011;1722;51.316;12.370;2023-01-19T12:39:53;9.10;;;6.60;;
3417;SDS011;1722;51.316;12.370;2023-01-19T12:42:22;9.50;;;6.70;;
3417;SDS011;1722;51.316;12.370;2023-01-19T12:44:51;9.43;;;6.80;;
3417;SDS011;1722;51.316;12.370;2023-01-19T12:47:35;12.37;;;7.03;;
3417;SDS011;1722;51.316;12.370;2023-01-19T12:50:03;9.27;;;7.07;;
3417;SDS011;1722;51.316;12.370;2023-01-19T12:52:33;10.30;;;7.10;;
3417;SDS011;1722;51.316;12.370;2023-01-19T12:55:14;12.60;;;6.70;;
3417;SDS011;1722;51.316;12.370;2023-01-19T12:57:48;10.93;;;7.40;;
3417;SDS011;1722;51.316;12.370;2023-01-19T13:00:28;10.10;;;6.30;;
3417;SDS011;1722;51.316;12.370;2023-01-19T13:03:00;9.53;;;6.83;;
3417;SDS011;1722;51.316;12.370;2023-01-19T13:08:16;9.70;;;6.50;;
3417;SDS011;1722;51.316;12.370;2023-01-19T13:25:52;9.60;;;6.53;;
3417;SDS011;1722;51.316;12.370;2023-01-19T13:28:31;9.70;;;6.77;;
3417;SDS011;1722;51.316;12.370;2023-01-19T13:31:03;8.73;;;6.60;;
3417;SDS011;1722;51.316;12.370;2023-01-19T13:33:34;9.17;;;6.07;;
3417;SDS011;1722;51.316;12.370;2023-01-19T13:36:14;13.00;;;6.90;;
3417;SDS011;1722;51.316;12.370;2023-01-19T13:38:47;9.00;;;6.83;;
3417;SDS011;1722;51.316;12.370;2023-01-19T13:41:16;8.80;;;6.57;;
3417;SDS011;1722;51.316;12.370;2023-01-19T13:43:46;10.97;;;7.17;;
3417;SDS011;1722;51.316;12.370;2023-01-19T13:46:24;12.87;;;7.00;;
3417;SDS011;1722;51.316;12.370;2023-01-19T13:48:54;10.20;;;7.33;;
3417;SDS011;1722;51.316;12.370;2023-01-19T13:51:25;10.23;;;7.20;;
3417;SDS011;1722;51.316;12.370;2023-01-19T13:53:53;8.73;;;6.30;;
3417;SDS011;1722;51.316;12.370;2023-01-19T13:56:22;8.93;;;6.47;;
3417;SDS011;1722;51.316;12.370;2023-01-19T14:01:40;12.33;;;7.07;;
3417;SDS011;1722;51.316;12.370;2023-01-19T14:07:04;10.37;;;6.50;;
3417;SDS011;1722;51.316;12.370;2023-01-19T14:09:37;10.70;;;5.93;;
3417;SDS011;1722;51.316;12.370;2023-01-19T14:12:07;10.20;;;6.70;;
3417;SDS011;1722;51.316;12.370;2023-01-19T14:14:38;11.13;;;7.40;;
3417;SDS011;1722;51.316;12.370;2023-01-19T14:17:16;12.37;;;6.43;;
3417;SDS011;1722;51.316;12.370;2023-01-19T14:19:50;10.03;;;6.23;;
3417;SDS011;1722;51.316;12.370;2023-01-19T14:22:21;9.90;;;6.23;;
3417;SDS011;1722;51.316;12.370;2023-01-19T14:31:00;9.63;;;7.00;;
3417;SDS011;1722;51.316;12.370;2023-01-19T14:33:31;11.67;;;6.70;;
3417;SDS011;1722;51.316;12.370;2023-01-19T14:36:07;10.20;;;7.10;;
3417;SDS011;1722;51.316;12.370;2023-01-19T14:38:50;8.47;;;5.90;;
3417;SDS011;1722;51.316;12.370;2023-01-19T14:41:22;11.10;;;6.60;;
3417;SDS011;1722;51.316;12.370;2023-01-19T14:43:59;10.90;;;6.73;;
3417;SDS011;1722;51.316;12.370;2023-01-19T14:46:27;9.90;;;6.77;;
3417;SDS011;1722;51.316;12.370;2023-01-19T14:48:57;8.97;;;6.67;;
3417;SDS011;1722;51.316;12.370;2023-01-19T14:51:28;21.50;;;10.00;;
3417;SDS011;1722;51.316;12.370;2023-01-19T14:53:58;11.03;;;7.50;;
3417;SDS011;1722;51.316;12.370;2023-01-19T14:56:28;9.43;;;5.93;;
3417;SDS011;1722;51.316;12.370;2023-01-19T14:58:57;9.83;;;6.50;;
3417;SDS011;1722;51.316;12.370;2023-01-19T15:01:26;10.43;;;6.30;;
3417;SDS011;1722;51.316;12.370;2023-01-19T15:03:55;8.80;;;5.40;;
3417;SDS011;1722;51.316;12.370;2023-01-19T15:06:23;6.57;;;4.87;;
3417;SDS011;1722;51.316;12.370;2023-01-19T15:08:52;9.53;;;5.40;;
3417;SDS011;1722;51.316;12.370;2023-01-19T15:11:22;8.40;;;5.40;;
3417;SDS011;1722;51.316;12.370;2023-01-19T15:13:52;13.33;;;6.60;;
3417;SDS011;1722;51.316;12.370;2023-01-19T15:16:20;12.67;;;5.90;;
3417;SDS011;1722;51.316;12.370;2023-01-19T15:18:49;9.20;;;5.90;;
3417;SDS011;1722;51.316;12.370;2023-01-19T15:21:17;13.80;;;5.27;;
3417;SDS011;1722;51.316;12.370;2023-01-19T15:23:48;11.27;;;6.30;;
3417;SDS011;1722;51.316;12.370;2023-01-19T15:26:16;11.10;;;5.63;;
3417;SDS011;1722;51.316;12.370;2023-01-19T15:28:46;14.13;;;5.70;;
3417;SDS011;1722;51.316;12.370;2023-01-19T15:31:15;10.17;;;5.87;;
3417;SDS011;1722;51.316;12.370;2023-01-19T15:33:44;8.00;;;5.30;;
3417;SDS011;1722;51.316;12.370;2023-01-19T15:36:12;8.63;;;6.20;;
3417;SDS011;1722;51.316;12.370;2023-01-19T15:38:40;10.63;;;5.90;;
3417;SDS011;1722;51.316;12.370;2023-01-19T15:41:10;10.37;;;6.20;;